sensor_id;sensor_type;location;lat;lon;timestamp;temperature;humidity
8130;DHT22;4106;52.532;13.408;2022-08-19T00:00:17;21.10;99.90
8130;DHT22;4106;52.532;13.408;2022-08-19T00:02:45;21.10;99.90
8130;DHT22;4106;52.532;13.408;2022-08-19T00:05:13;21.10;99.90
8130;DHT22;4106;52.532;13.408;2022-08-19T00:07:40;21.10;99.90
8130;DHT22;4106;52.532;13.408;2022-08-19T00:10:09;21.10;99.90
8130;DHT22;4106;52.532;13.408;2022-08-19T00:12:36;21.10;99.90
8130;DHT22;4106;52.532;13.408;2022-08-19T00:15:07;21.10;99.90
8130;DHT22;4106;52.532;13.408;2022-08-19T00:17:32;21.10;99.90
8130;DHT22;4106;52.532;13.408;2022-08-19T00:19:59;21.10;99.90
8130;DHT22;4106;52.532;13.408;2022-08-19T00:22:27;21.10;99.90
8130;DHT22;4106;52.532;13.408;2022-08-19T00:24:55;21.20;99.90
8130;DHT22;4106;52.532;13.408;2022-08-19T00:27:23;21.20;99.90
8130;DHT22;4106;52.532;13.408;2022-08-19T00:29:51;21.20;99.90
8130;DHT22;4106;52.532;13.408;2022-08-19T00:32:19;21.20;99.90
8130;DHT22;4106;52.532;13.408;2022-08-19T00:34:47;21.20;99.90
8130;DHT22;4106;52.532;13.408;2022-08-19T00:37:14;21.20;99.90
8130;DHT22;4106;52.532;13.408;2022-08-19T00:39:42;21.30;99.90
8130;DHT22;4106;52.532;13.408;2022-08-19T00:42:09;21.30;99.90
8130;DHT22;4106;52.532;13.408;2022-08-19T00:44:36;21.20;99.90
8130;DHT22;4106;52.532;13.408;2022-08-19T00:47:04;21.10;99.90
8130;DHT22;4106;52.532;13.408;2022-08-19T00:49:34;21.10;99.90
8130;DHT22;4106;52.532;13.408;2022-08-19T00:52:02;21.10;99.90
8130;DHT22;4106;52.532;13.408;2022-08-19T00:54:27;21.10;99.90
8130;DHT22;4106;52.532;13.408;2022-08-19T00:56:54;21.10;99.90
8130;DHT22;4106;52.532;13.408;2022-08-19T00:59:21;21.10;99.90
8130;DHT22;4106;52.532;13.408;2022-08-19T01:01:48;21.10;99.90
8130;DHT22;4106;52.532;13.408;2022-08-19T01:04:16;21.00;99.90
8130;DHT22;4106;52.532;13.408;2022-08-19T01:06:43;20.90;99.90
8130;DHT22;4106;52.532;13.408;2022-08-19T01:09:10;20.70;99.90
8130;DHT22;4106;52.532;13.408;2022-08-19T01:11:38;20.70;99.90
8130;DHT22;4106;52.532;13.408;2022-08-19T01:14:05;20.60;99.90
8130;DHT22;4106;52.532;13.408;2022-08-19T01:16:32;20.60;99.90
8130;DHT22;4106;52.532;13.408;2022-08-19T01:18:59;20.60;99.90
8130;DHT22;4106;52.532;13.408;2022-08-19T01:21:32;20.60;99.90
8130;DHT22;4106;52.532;13.408;2022-08-19T01:23:58;20.60;99.90
8130;DHT22;4106;52.532;13.408;2022-08-19T01:26:26;20.70;99.90
8130;DHT22;4106;52.532;13.408;2022-08-19T01:28:54;20.70;99.90
8130;DHT22;4106;52.532;13.408;2022-08-19T01:31:21;20.70;99.90
8130;DHT22;4106;52.532;13.408;2022-08-19T01:33:48;20.60;99.90
8130;DHT22;4106;52.532;13.408;2022-08-19T01:36:16;20.70;99.90
8130;DHT22;4106;52.532;13.408;2022-08-19T01:38:42;20.70;99.90
8130;DHT22;4106;52.532;13.408;2022-08-19T01:41:10;20.70;99.90
8130;DHT22;4106;52.532;13.408;2022-08-19T01:43:37;20.80;99.90
8130;DHT22;4106;52.532;13.408;2022-08-19T01:46:04;20.80;99.90
8130;DHT22;4106;52.532;13.408;2022-08-19T01:48:35;20.80;99.90
8130;DHT22;4106;52.532;13.408;2022-08-19T01:51:01;20.70;99.90
8130;DHT22;4106;52.532;13.408;2022-08-19T01:53:29;20.70;99.90
8130;DHT22;4106;52.532;13.408;2022-08-19T01:55:56;20.70;99.90
8130;DHT22;4106;52.532;13.408;2022-08-19T01:58:25;20.70;99.90
8130;DHT22;4106;52.532;13.408;2022-08-19T02:00:51;20.60;99.90
8130;DHT22;4106;52.532;13.408;2022-08-19T02:03:19;20.60;99.90
8130;DHT22;4106;52.532;13.408;2022-08-19T02:05:46;20.50;99.90
8130;DHT22;4106;52.532;13.408;2022-08-19T02:08:14;20.20;99.90
8130;DHT22;4106;52.532;13.408;2022-08-19T02:10:42;20.10;99.90
8130;DHT22;4106;52.532;13.408;2022-08-19T02:13:09;19.90;99.90
8130;DHT22;4106;52.532;13.408;2022-08-19T02:15:36;19.90;99.90
8130;DHT22;4106;52.532;13.408;2022-08-19T02:18:03;20.00;99.90
8130;DHT22;4106;52.532;13.408;2022-08-19T02:20:30;19.90;99.90
8130;DHT22;4106;52.532;13.408;2022-08-19T02:22:57;19.80;99.90
8130;DHT22;4106;52.532;13.408;2022-08-19T02:25:24;19.80;99.90
8130;DHT22;4106;52.532;13.408;2022-08-19T02:27:52;19.70;99.90
8130;DHT22;4106;52.532;13.408;2022-08-19T02:30:19;19.70;99.90
8130;DHT22;4106;52.532;13.408;2022-08-19T02:32:46;19.60;99.90
8130;DHT22;4106;52.532;13.408;2022-08-19T02:35:13;19.60;99.90
8130;DHT22;4106;52.532;13.408;2022-08-19T02:37:41;19.60;99.90
8130;DHT22;4106;52.532;13.408;2022-08-19T02:40:14;19.50;99.90
8130;DHT22;4106;52.532;13.408;2022-08-19T02:42:41;19.60;99.90
8130;DHT22;4106;52.532;13.408;2022-08-19T02:45:09;19.60;99.90
8130;DHT22;4106;52.532;13.408;2022-08-19T02:47:37;19.50;99.90
8130;DHT22;4106;52.532;13.408;2022-08-19T02:50:05;19.50;99.90
8130;DHT22;4106;52.532;13.408;2022-08-19T02:52:33;19.50;99.90
8130;DHT22;4106;52.532;13.408;2022-08-19T02:55:01;19.60;99.90
8130;DHT22;4106;52.532;13.408;2022-08-19T02:57:29;19.60;99.90
8130;DHT22;4106;52.532;13.408;2022-08-19T02:59:56;19.60;99.90
8130;DHT22;4106;52.532;13.408;2022-08-19T03:02:23;19.60;99.90
8130;DHT22;4106;52.532;13.408;2022-08-19T03:04:50;19.60;99.90
8130;DHT22;4106;52.532;13.408;2022-08-19T03:07:17;19.50;99.90
8130;DHT22;4106;52.532;13.408;2022-08-19T03:09:45;19.60;99.90
8130;DHT22;4106;52.532;13.408;2022-08-19T03:12:12;19.50;99.90
8130;DHT22;4106;52.532;13.408;2022-08-19T03:14:39;19.50;99.90
8130;DHT22;4106;52.532;13.408;2022-08-19T03:17:06;19.50;99.90
8130;DHT22;4106;52.532;13.408;2022-08-19T03:19:33;19.40;99.90
8130;DHT22;4106;52.532;13.408;2022-08-19T03:22:01;19.40;99.90
8130;DHT22;4106;52.532;13.408;2022-08-19T03:24:29;19.40;99.90
8130;DHT22;4106;52.532;13.408;2022-08-19T03:26:57;19.40;99.90
8130;DHT22;4106;52.532;13.408;2022-08-19T03:29:27;19.40;99.90
8130;DHT22;4106;52.532;13.408;2022-08-19T03:31:54;19.30;99.90
8130;DHT22;4106;52.532;13.408;2022-08-19T03:34:23;19.30;99.90
8130;DHT22;4106;52.532;13.408;2022-08-19T03:36:50;19.30;99.90
8130;DHT22;4106;52.532;13.408;2022-08-19T03:39:17;19.30;99.90
8130;DHT22;4106;52.532;13.408;2022-08-19T03:41:45;19.30;99.90
8130;DHT22;4106;52.532;13.408;2022-08-19T03:44:13;19.30;99.90
8130;DHT22;4106;52.532;13.408;2022-08-19T03:46:39;19.40;99.90
8130;DHT22;4106;52.532;13.408;2022-08-19T03:49:06;19.40;99.90
8130;DHT22;4106;52.532;13.408;2022-08-19T03:51:35;19.30;99.90
8130;DHT22;4106;52.532;13.408;2022-08-19T03:54:02;19.40;99.90
8130;DHT22;4106;52.532;13.408;2022-08-19T03:56:29;19.50;99.90
8130;DHT22;4106;52.532;13.408;2022-08-19T03:58:56;19.40;99.90
8130;DHT22;4106;52.532;13.408;2022-08-19T04:01:24;19.40;99.90
8130;DHT22;4106;52.532;13.408;2022-08-19T04:03:50;19.50;99.90
8130;DHT22;4106;52.532;13.408;2022-08-19T04:06:20;19.50;99.90
8130;DHT22;4106;52.532;13.408;2022-08-19T04:08:46;19.50;99.90
8130;DHT22;4106;52.532;13.408;2022-08-19T04:11:15;19.50;99.90
8130;DHT22;4106;52.532;13.408;2022-08-19T04:13:41;19.50;99.90
8130;DHT22;4106;52.532;13.408;2022-08-19T04:16:09;19.50;99.90
8130;DHT22;4106;52.532;13.408;2022-08-19T04:18:36;19.50;99.90
8130;DHT22;4106;52.532;13.408;2022-08-19T04:21:03;19.60;99.90
8130;DHT22;4106;52.532;13.408;2022-08-19T04:23:31;19.60;99.90
8130;DHT22;4106;52.532;13.408;2022-08-19T04:25:58;19.70;99.90
8130;DHT22;4106;52.532;13.408;2022-08-19T04:28:25;19.70;99.90
8130;DHT22;4106;52.532;13.408;2022-08-19T04:30:53;19.80;99.90
8130;DHT22;4106;52.532;13.408;2022-08-19T04:33:21;19.80;99.90
8130;DHT22;4106;52.532;13.408;2022-08-19T04:35:47;19.80;99.90
8130;DHT22;4106;52.532;13.408;2022-08-19T04:38:15;19.90;99.90
8130;DHT22;4106;52.532;13.408;2022-08-19T04:40:43;19.90;99.90
8130;DHT22;4106;52.532;13.408;2022-08-19T04:43:15;20.00;99.90
8130;DHT22;4106;52.532;13.408;2022-08-19T04:45:43;20.00;99.90
8130;DHT22;4106;52.532;13.408;2022-08-19T04:48:10;20.10;99.90
8130;DHT22;4106;52.532;13.408;2022-08-19T04:50:39;20.10;99.90
8130;DHT22;4106;52.532;13.408;2022-08-19T04:53:04;20.20;99.90
8130;DHT22;4106;52.532;13.408;2022-08-19T04:55:31;20.20;99.90
8130;DHT22;4106;52.532;13.408;2022-08-19T04:57:58;20.20;99.90
8130;DHT22;4106;52.532;13.408;2022-08-19T05:00:26;20.20;99.90
8130;DHT22;4106;52.532;13.408;2022-08-19T05:02:54;20.30;99.90
8130;DHT22;4106;52.532;13.408;2022-08-19T05:05:22;20.30;99.90
8130;DHT22;4106;52.532;13.408;2022-08-19T05:07:50;20.40;99.90
8130;DHT22;4106;52.532;13.408;2022-08-19T05:10:17;20.40;99.90
8130;DHT22;4106;52.532;13.408;2022-08-19T05:12:44;20.40;99.90
8130;DHT22;4106;52.532;13.408;2022-08-19T05:15:12;20.50;99.90
8130;DHT22;4106;52.532;13.408;2022-08-19T05:17:39;20.50;99.90
8130;DHT22;4106;52.532;13.408;2022-08-19T05:20:07;20.60;99.90
8130;DHT22;4106;52.532;13.408;2022-08-19T05:22:41;20.70;99.90
8130;DHT22;4106;52.532;13.408;2022-08-19T05:25:08;20.80;99.90
8130;DHT22;4106;52.532;13.408;2022-08-19T05:27:38;20.90;99.90
8130;DHT22;4106;52.532;13.408;2022-08-19T05:30:05;21.00;99.90
8130;DHT22;4106;52.532;13.408;2022-08-19T05:32:33;21.00;99.90
8130;DHT22;4106;52.532;13.408;2022-08-19T05:35:00;21.00;99.90
8130;DHT22;4106;52.532;13.408;2022-08-19T05:37:28;21.20;99.90
8130;DHT22;4106;52.532;13.408;2022-08-19T05:39:56;21.30;99.90
8130;DHT22;4106;52.532;13.408;2022-08-19T05:42:24;21.40;99.90
8130;DHT22;4106;52.532;13.408;2022-08-19T05:44:52;21.50;99.90
8130;DHT22;4106;52.532;13.408;2022-08-19T05:47:19;21.40;99.90
8130;DHT22;4106;52.532;13.408;2022-08-19T05:49:46;21.40;99.90
8130;DHT22;4106;52.532;13.408;2022-08-19T05:52:14;21.50;99.90
8130;DHT22;4106;52.532;13.408;2022-08-19T05:54:41;21.60;99.90
8130;DHT22;4106;52.532;13.408;2022-08-19T05:57:08;21.70;99.90
8130;DHT22;4106;52.532;13.408;2022-08-19T05:59:35;21.90;99.90
8130;DHT22;4106;52.532;13.408;2022-08-19T06:02:02;22.00;99.90
8130;DHT22;4106;52.532;13.408;2022-08-19T06:04:29;22.10;99.90
8130;DHT22;4106;52.532;13.408;2022-08-19T06:06:58;22.20;99.90
8130;DHT22;4106;52.532;13.408;2022-08-19T06:09:26;22.20;99.90
8130;DHT22;4106;52.532;13.408;2022-08-19T06:11:55;22.40;99.90
8130;DHT22;4106;52.532;13.408;2022-08-19T06:14:22;22.40;99.90
8130;DHT22;4106;52.532;13.408;2022-08-19T06:16:48;22.40;99.90
8130;DHT22;4106;52.532;13.408;2022-08-19T06:19:16;22.50;99.90
8130;DHT22;4106;52.532;13.408;2022-08-19T06:21:43;22.50;99.90
8130;DHT22;4106;52.532;13.408;2022-08-19T06:24:11;22.70;99.90
8130;DHT22;4106;52.532;13.408;2022-08-19T06:26:39;22.70;99.90
8130;DHT22;4106;52.532;13.408;2022-08-19T06:29:05;22.70;99.90
8130;DHT22;4106;52.532;13.408;2022-08-19T06:31:32;22.80;99.90
8130;DHT22;4106;52.532;13.408;2022-08-19T06:34:01;23.00;99.90
8130;DHT22;4106;52.532;13.408;2022-08-19T06:36:30;23.00;99.90
8130;DHT22;4106;52.532;13.408;2022-08-19T06:38:58;23.00;99.90
8130;DHT22;4106;52.532;13.408;2022-08-19T06:41:25;23.10;99.90
8130;DHT22;4106;52.532;13.408;2022-08-19T06:43:52;23.30;99.90
8130;DHT22;4106;52.532;13.408;2022-08-19T06:46:19;23.40;99.90
8130;DHT22;4106;52.532;13.408;2022-08-19T06:48:46;23.40;99.90
8130;DHT22;4106;52.532;13.408;2022-08-19T06:51:14;23.40;99.90
8130;DHT22;4106;52.532;13.408;2022-08-19T06:53:41;23.30;99.90
8130;DHT22;4106;52.532;13.408;2022-08-19T06:56:08;23.30;99.90
8130;DHT22;4106;52.532;13.408;2022-08-19T06:58:35;23.40;99.90
8130;DHT22;4106;52.532;13.408;2022-08-19T07:01:02;23.60;99.90
8130;DHT22;4106;52.532;13.408;2022-08-19T07:03:30;23.50;99.90
8130;DHT22;4106;52.532;13.408;2022-08-19T07:05:57;23.50;99.90
8130;DHT22;4106;52.532;13.408;2022-08-19T07:08:25;23.60;99.90
8130;DHT22;4106;52.532;13.408;2022-08-19T07:10:52;23.50;99.90
8130;DHT22;4106;52.532;13.408;2022-08-19T07:13:19;23.50;99.90
8130;DHT22;4106;52.532;13.408;2022-08-19T07:15:46;23.30;99.90
8130;DHT22;4106;52.532;13.408;2022-08-19T07:18:14;23.40;99.90
8130;DHT22;4106;52.532;13.408;2022-08-19T07:20:42;23.40;99.90
8130;DHT22;4106;52.532;13.408;2022-08-19T07:23:10;23.50;99.90
8130;DHT22;4106;52.532;13.408;2022-08-19T07:25:38;23.50;99.90
8130;DHT22;4106;52.532;13.408;2022-08-19T07:28:06;23.70;99.90
8130;DHT22;4106;52.532;13.408;2022-08-19T07:30:35;23.70;99.90
8130;DHT22;4106;52.532;13.408;2022-08-19T07:33:00;23.90;99.90
8130;DHT22;4106;52.532;13.408;2022-08-19T07:35:28;24.00;99.90
8130;DHT22;4106;52.532;13.408;2022-08-19T07:37:55;24.00;99.90
8130;DHT22;4106;52.532;13.408;2022-08-19T07:40:23;24.00;99.90
8130;DHT22;4106;52.532;13.408;2022-08-19T07:42:51;23.90;99.90
8130;DHT22;4106;52.532;13.408;2022-08-19T07:45:19;23.90;99.90
8130;DHT22;4106;52.532;13.408;2022-08-19T07:47:46;23.60;99.90
8130;DHT22;4106;52.532;13.408;2022-08-19T07:50:14;23.90;99.90
8130;DHT22;4106;52.532;13.408;2022-08-19T07:52:42;23.90;99.90
8130;DHT22;4106;52.532;13.408;2022-08-19T07:55:10;23.90;99.90
8130;DHT22;4106;52.532;13.408;2022-08-19T07:57:38;23.90;99.90
8130;DHT22;4106;52.532;13.408;2022-08-19T08:00:06;23.90;99.90
8130;DHT22;4106;52.532;13.408;2022-08-19T08:02:33;24.00;99.90
8130;DHT22;4106;52.532;13.408;2022-08-19T08:05:01;23.90;99.90
8130;DHT22;4106;52.532;13.408;2022-08-19T08:07:34;23.80;99.90
8130;DHT22;4106;52.532;13.408;2022-08-19T08:10:07;23.80;99.90
8130;DHT22;4106;52.532;13.408;2022-08-19T08:12:37;23.80;99.90
8130;DHT22;4106;52.532;13.408;2022-08-19T08:15:04;23.60;99.90
8130;DHT22;4106;52.532;13.408;2022-08-19T08:17:29;23.70;99.90
8130;DHT22;4106;52.532;13.408;2022-08-19T08:19:56;23.80;99.90
8130;DHT22;4106;52.532;13.408;2022-08-19T08:22:23;24.00;99.90
8130;DHT22;4106;52.532;13.408;2022-08-19T08:25:10;24.20;99.90
8130;DHT22;4106;52.532;13.408;2022-08-19T08:27:37;24.20;99.90
8130;DHT22;4106;52.532;13.408;2022-08-19T08:30:06;24.20;99.90
8130;DHT22;4106;52.532;13.408;2022-08-19T08:32:32;23.90;99.90
8130;DHT22;4106;52.532;13.408;2022-08-19T08:34:59;23.90;99.90
8130;DHT22;4106;52.532;13.408;2022-08-19T08:37:27;24.20;99.90
8130;DHT22;4106;52.532;13.408;2022-08-19T08:42:40;24.50;99.90
8130;DHT22;4106;52.532;13.408;2022-08-19T08:45:10;24.40;99.90
8130;DHT22;4106;52.532;13.408;2022-08-19T08:47:35;24.40;99.90
8130;DHT22;4106;52.532;13.408;2022-08-19T08:50:05;24.20;99.90
8130;DHT22;4106;52.532;13.408;2022-08-19T08:52:34;24.10;99.90
8130;DHT22;4106;52.532;13.408;2022-08-19T08:55:05;24.30;99.90
8130;DHT22;4106;52.532;13.408;2022-08-19T08:57:35;24.30;99.90
8130;DHT22;4106;52.532;13.408;2022-08-19T09:00:00;24.50;99.90
8130;DHT22;4106;52.532;13.408;2022-08-19T09:02:27;24.40;99.90
8130;DHT22;4106;52.532;13.408;2022-08-19T09:04:56;24.30;99.90
8130;DHT22;4106;52.532;13.408;2022-08-19T09:07:34;24.20;99.90
8130;DHT22;4106;52.532;13.408;2022-08-19T09:10:32;24.20;99.90
8130;DHT22;4106;52.532;13.408;2022-08-19T09:12:45;24.00;99.90
8130;DHT22;4106;52.532;13.408;2022-08-19T09:15:10;23.80;99.90
8130;DHT22;4106;52.532;13.408;2022-08-19T09:17:36;23.70;99.90
8130;DHT22;4106;52.532;13.408;2022-08-19T09:20:18;23.90;99.90
8130;DHT22;4106;52.532;13.408;2022-08-19T09:22:46;24.30;99.90
8130;DHT22;4106;52.532;13.408;2022-08-19T09:25:14;24.80;99.90
8130;DHT22;4106;52.532;13.408;2022-08-19T09:27:41;25.20;99.90
8130;DHT22;4106;52.532;13.408;2022-08-19T09:30:11;25.60;99.90
8130;DHT22;4106;52.532;13.408;2022-08-19T09:32:37;25.60;99.90
8130;DHT22;4106;52.532;13.408;2022-08-19T09:35:04;25.60;99.90
8130;DHT22;4106;52.532;13.408;2022-08-19T09:37:32;25.30;99.90
8130;DHT22;4106;52.532;13.408;2022-08-19T09:40:00;25.30;99.90
8130;DHT22;4106;52.532;13.408;2022-08-19T09:42:28;25.50;99.90
8130;DHT22;4106;52.532;13.408;2022-08-19T09:44:56;25.60;99.90
8130;DHT22;4106;52.532;13.408;2022-08-19T09:47:24;25.60;99.90
8130;DHT22;4106;52.532;13.408;2022-08-19T09:49:52;25.80;99.90
8130;DHT22;4106;52.532;13.408;2022-08-19T09:52:20;25.90;99.90
8130;DHT22;4106;52.532;13.408;2022-08-19T09:54:51;26.10;99.90
8130;DHT22;4106;52.532;13.408;2022-08-19T09:57:16;26.10;99.90
8130;DHT22;4106;52.532;13.408;2022-08-19T09:59:43;26.10;99.90
8130;DHT22;4106;52.532;13.408;2022-08-19T10:02:11;25.90;99.90
8130;DHT22;4106;52.532;13.408;2022-08-19T10:04:39;26.20;99.90
8130;DHT22;4106;52.532;13.408;2022-08-19T10:07:11;26.20;99.90
8130;DHT22;4106;52.532;13.408;2022-08-19T10:09:40;25.90;99.90
8130;DHT22;4106;52.532;13.408;2022-08-19T10:12:07;25.90;99.90
8130;DHT22;4106;52.532;13.408;2022-08-19T10:14:35;25.90;99.90
8130;DHT22;4106;52.532;13.408;2022-08-19T10:17:03;25.50;99.90
8130;DHT22;4106;52.532;13.408;2022-08-19T10:19:31;25.30;99.90
8130;DHT22;4106;52.532;13.408;2022-08-19T10:22:01;25.40;99.90
8130;DHT22;4106;52.532;13.408;2022-08-19T10:24:27;25.30;99.90
8130;DHT22;4106;52.532;13.408;2022-08-19T10:26:55;25.20;99.90
8130;DHT22;4106;52.532;13.408;2022-08-19T10:29:23;25.10;99.90
8130;DHT22;4106;52.532;13.408;2022-08-19T10:31:51;24.80;99.90
8130;DHT22;4106;52.532;13.408;2022-08-19T10:34:19;24.60;99.90
8130;DHT22;4106;52.532;13.408;2022-08-19T10:36:47;24.50;99.90
8130;DHT22;4106;52.532;13.408;2022-08-19T10:39:14;24.50;99.90
8130;DHT22;4106;52.532;13.408;2022-08-19T10:41:42;24.50;99.90
8130;DHT22;4106;52.532;13.408;2022-08-19T10:44:11;24.80;99.90
8130;DHT22;4106;52.532;13.408;2022-08-19T10:46:38;24.70;99.90
8130;DHT22;4106;52.532;13.408;2022-08-19T10:49:04;24.70;99.90
8130;DHT22;4106;52.532;13.408;2022-08-19T10:51:31;24.70;99.90
8130;DHT22;4106;52.532;13.408;2022-08-19T10:54:04;24.80;99.90
8130;DHT22;4106;52.532;13.408;2022-08-19T10:56:32;25.30;99.90
8130;DHT22;4106;52.532;13.408;2022-08-19T10:59:06;25.30;99.90
8130;DHT22;4106;52.532;13.408;2022-08-19T11:01:34;25.10;99.90
8130;DHT22;4106;52.532;13.408;2022-08-19T11:04:01;25.10;99.90
8130;DHT22;4106;52.532;13.408;2022-08-19T11:06:31;24.70;99.90
8130;DHT22;4106;52.532;13.408;2022-08-19T11:08:57;24.60;99.90
8130;DHT22;4106;52.532;13.408;2022-08-19T11:11:26;24.30;99.90
8130;DHT22;4106;52.532;13.408;2022-08-19T11:13:52;24.20;99.90
8130;DHT22;4106;52.532;13.408;2022-08-19T11:16:21;24.10;99.90
8130;DHT22;4106;52.532;13.408;2022-08-19T11:18:49;24.20;99.90
8130;DHT22;4106;52.532;13.408;2022-08-19T11:21:18;24.40;99.90
8130;DHT22;4106;52.532;13.408;2022-08-19T11:23:46;24.60;99.90
8130;DHT22;4106;52.532;13.408;2022-08-19T11:26:12;24.60;99.90
8130;DHT22;4106;52.532;13.408;2022-08-19T11:28:39;24.40;99.90
8130;DHT22;4106;52.532;13.408;2022-08-19T11:31:10;24.30;99.90
8130;DHT22;4106;52.532;13.408;2022-08-19T11:33:36;24.60;99.90
8130;DHT22;4106;52.532;13.408;2022-08-19T11:36:04;24.70;99.90
8130;DHT22;4106;52.532;13.408;2022-08-19T11:38:31;24.50;99.90
8130;DHT22;4106;52.532;13.408;2022-08-19T11:40:59;24.60;99.90
8130;DHT22;4106;52.532;13.408;2022-08-19T11:43:25;24.50;99.90
8130;DHT22;4106;52.532;13.408;2022-08-19T11:45:54;24.00;99.90
8130;DHT22;4106;52.532;13.408;2022-08-19T11:48:21;24.00;99.90
8130;DHT22;4106;52.532;13.408;2022-08-19T11:50:49;24.00;99.90
8130;DHT22;4106;52.532;13.408;2022-08-19T11:53:18;24.00;99.90
8130;DHT22;4106;52.532;13.408;2022-08-19T11:55:46;23.90;99.90
8130;DHT22;4106;52.532;13.408;2022-08-19T11:58:13;24.10;99.90
8130;DHT22;4106;52.532;13.408;2022-08-19T12:00:41;24.20;99.90
8130;DHT22;4106;52.532;13.408;2022-08-19T12:03:08;24.20;99.90
8130;DHT22;4106;52.532;13.408;2022-08-19T12:05:36;24.40;99.90
8130;DHT22;4106;52.532;13.408;2022-08-19T12:08:03;24.70;99.90
8130;DHT22;4106;52.532;13.408;2022-08-19T12:10:30;24.90;99.90
8130;DHT22;4106;52.532;13.408;2022-08-19T12:12:57;25.00;99.90
8130;DHT22;4106;52.532;13.408;2022-08-19T12:15:24;24.90;99.90
8130;DHT22;4106;52.532;13.408;2022-08-19T12:17:51;24.80;99.90
8130;DHT22;4106;52.532;13.408;2022-08-19T12:20:19;24.70;99.90
8130;DHT22;4106;52.532;13.408;2022-08-19T12:22:46;25.00;99.90
8130;DHT22;4106;52.532;13.408;2022-08-19T12:25:13;25.50;99.90
8130;DHT22;4106;52.532;13.408;2022-08-19T12:27:40;25.50;99.90
8130;DHT22;4106;52.532;13.408;2022-08-19T12:30:09;25.30;99.90
8130;DHT22;4106;52.532;13.408;2022-08-19T12:32:37;25.30;99.90
8130;DHT22;4106;52.532;13.408;2022-08-19T12:35:04;25.80;99.90
8130;DHT22;4106;52.532;13.408;2022-08-19T12:37:31;26.30;99.90
8130;DHT22;4106;52.532;13.408;2022-08-19T12:39:59;26.50;99.90
8130;DHT22;4106;52.532;13.408;2022-08-19T12:42:27;26.10;99.90
8130;DHT22;4106;52.532;13.408;2022-08-19T12:44:55;25.80;99.90
8130;DHT22;4106;52.532;13.408;2022-08-19T12:47:23;25.60;99.90
8130;DHT22;4106;52.532;13.408;2022-08-19T12:49:51;25.60;99.90
8130;DHT22;4106;52.532;13.408;2022-08-19T12:52:19;25.60;99.90
8130;DHT22;4106;52.532;13.408;2022-08-19T12:54:46;25.80;99.90
8130;DHT22;4106;52.532;13.408;2022-08-19T12:57:13;26.20;99.90
8130;DHT22;4106;52.532;13.408;2022-08-19T12:59:40;26.40;99.90
8130;DHT22;4106;52.532;13.408;2022-08-19T13:02:08;26.70;99.90
8130;DHT22;4106;52.532;13.408;2022-08-19T13:04:35;26.90;98.80
8130;DHT22;4106;52.532;13.408;2022-08-19T13:07:02;27.10;98.90
8130;DHT22;4106;52.532;13.408;2022-08-19T13:09:29;26.90;98.10
8130;DHT22;4106;52.532;13.408;2022-08-19T13:11:56;26.80;98.70
8130;DHT22;4106;52.532;13.408;2022-08-19T13:14:24;26.70;98.80
8130;DHT22;4106;52.532;13.408;2022-08-19T13:16:52;27.00;98.20
8130;DHT22;4106;52.532;13.408;2022-08-19T13:19:20;27.10;97.80
8130;DHT22;4106;52.532;13.408;2022-08-19T13:21:49;27.00;98.10
8130;DHT22;4106;52.532;13.408;2022-08-19T13:24:17;27.10;97.80
8130;DHT22;4106;52.532;13.408;2022-08-19T13:26:43;27.10;97.50
8130;DHT22;4106;52.532;13.408;2022-08-19T13:29:11;26.80;97.60
8130;DHT22;4106;52.532;13.408;2022-08-19T13:31:43;27.00;97.20
8130;DHT22;4106;52.532;13.408;2022-08-19T13:34:18;27.00;97.10
8130;DHT22;4106;52.532;13.408;2022-08-19T13:36:44;26.80;97.30
8130;DHT22;4106;52.532;13.408;2022-08-19T13:39:12;26.30;98.00
8130;DHT22;4106;52.532;13.408;2022-08-19T13:41:43;26.10;98.30
8130;DHT22;4106;52.532;13.408;2022-08-19T13:44:07;26.00;98.20
8130;DHT22;4106;52.532;13.408;2022-08-19T13:46:35;25.70;99.10
8130;DHT22;4106;52.532;13.408;2022-08-19T13:49:02;25.60;99.70
8130;DHT22;4106;52.532;13.408;2022-08-19T13:51:29;25.40;99.70
8130;DHT22;4106;52.532;13.408;2022-08-19T13:53:56;25.10;99.90
8130;DHT22;4106;52.532;13.408;2022-08-19T13:56:23;25.10;99.90
8130;DHT22;4106;52.532;13.408;2022-08-19T13:58:51;25.00;99.90
8130;DHT22;4106;52.532;13.408;2022-08-19T14:01:20;25.00;99.90
8130;DHT22;4106;52.532;13.408;2022-08-19T14:03:47;25.00;99.90
8130;DHT22;4106;52.532;13.408;2022-08-19T14:06:14;25.00;99.90
8130;DHT22;4106;52.532;13.408;2022-08-19T14:08:41;25.00;99.90
8130;DHT22;4106;52.532;13.408;2022-08-19T14:11:08;25.10;99.90
8130;DHT22;4106;52.532;13.408;2022-08-19T14:13:35;25.50;99.90
8130;DHT22;4106;52.532;13.408;2022-08-19T14:16:08;25.60;99.90
8130;DHT22;4106;52.532;13.408;2022-08-19T14:18:35;25.80;99.90
8130;DHT22;4106;52.532;13.408;2022-08-19T14:21:03;25.60;99.90
8130;DHT22;4106;52.532;13.408;2022-08-19T14:23:31;25.60;99.90
8130;DHT22;4106;52.532;13.408;2022-08-19T14:26:07;25.40;99.90
8130;DHT22;4106;52.532;13.408;2022-08-19T14:28:32;25.40;99.90
8130;DHT22;4106;52.532;13.408;2022-08-19T14:31:00;25.20;99.90
8130;DHT22;4106;52.532;13.408;2022-08-19T14:33:27;25.10;99.90
8130;DHT22;4106;52.532;13.408;2022-08-19T14:35:55;25.10;99.90
8130;DHT22;4106;52.532;13.408;2022-08-19T14:38:23;24.90;99.90
8130;DHT22;4106;52.532;13.408;2022-08-19T14:40:50;24.90;99.90
8130;DHT22;4106;52.532;13.408;2022-08-19T14:43:17;24.80;99.90
8130;DHT22;4106;52.532;13.408;2022-08-19T14:45:44;24.80;99.90
8130;DHT22;4106;52.532;13.408;2022-08-19T14:48:11;24.70;99.90
8130;DHT22;4106;52.532;13.408;2022-08-19T14:50:39;24.50;99.90
8130;DHT22;4106;52.532;13.408;2022-08-19T14:53:06;24.50;99.90
8130;DHT22;4106;52.532;13.408;2022-08-19T14:55:33;24.60;99.90
8130;DHT22;4106;52.532;13.408;2022-08-19T14:58:00;24.80;99.90
8130;DHT22;4106;52.532;13.408;2022-08-19T15:00:27;25.00;99.90
8130;DHT22;4106;52.532;13.408;2022-08-19T15:02:56;25.10;99.90
8130;DHT22;4106;52.532;13.408;2022-08-19T15:05:25;25.00;99.90
8130;DHT22;4106;52.532;13.408;2022-08-19T15:07:53;25.00;99.90
8130;DHT22;4106;52.532;13.408;2022-08-19T15:10:20;24.90;99.90
8130;DHT22;4106;52.532;13.408;2022-08-19T15:12:47;25.10;99.90
8130;DHT22;4106;52.532;13.408;2022-08-19T15:15:15;24.90;99.90
8130;DHT22;4106;52.532;13.408;2022-08-19T15:17:42;24.60;99.90
8130;DHT22;4106;52.532;13.408;2022-08-19T15:20:11;24.40;99.90
8130;DHT22;4106;52.532;13.408;2022-08-19T15:22:38;24.40;99.90
8130;DHT22;4106;52.532;13.408;2022-08-19T15:25:06;24.40;99.90
8130;DHT22;4106;52.532;13.408;2022-08-19T15:27:33;24.30;99.90
8130;DHT22;4106;52.532;13.408;2022-08-19T15:30:00;24.30;99.90
8130;DHT22;4106;52.532;13.408;2022-08-19T15:32:28;24.10;99.90
8130;DHT22;4106;52.532;13.408;2022-08-19T15:34:55;24.00;99.90
8130;DHT22;4106;52.532;13.408;2022-08-19T15:37:22;24.00;99.90
8130;DHT22;4106;52.532;13.408;2022-08-19T15:39:49;23.90;99.90
8130;DHT22;4106;52.532;13.408;2022-08-19T15:42:17;23.70;99.90
8130;DHT22;4106;52.532;13.408;2022-08-19T15:44:45;23.80;99.90
8130;DHT22;4106;52.532;13.408;2022-08-19T15:47:13;23.80;99.90
8130;DHT22;4106;52.532;13.408;2022-08-19T15:49:41;23.60;99.90